createdAt,value
2023-01-19T00:01:27.684Z,11.02
2023-01-19T00:03:55.633Z,12.32
2023-01-19T00:06:23.682Z,13.30
2023-01-19T00:08:51.745Z,11.77
2023-01-19T00:11:20.119Z,11.40
2023-01-19T00:13:50.828Z,11.65
2023-01-19T00:16:19.619Z,12.10
2023-01-19T00:18:47.871Z,12.18
2023-01-19T00:21:15.922Z,12.15
2023-01-19T00:23:47.325Z,12.00
2023-01-19T00:26:16.663Z,12.77
2023-01-19T00:28:44.969Z,12.77
2023-01-19T00:31:14.378Z,12.38
2023-01-19T00:33:42.399Z,11.75
2023-01-19T00:36:11.193Z,11.70
2023-01-19T00:38:39.729Z,11.80
2023-01-19T00:41:07.965Z,13.95
2023-01-19T00:43:34.910Z,11.55
2023-01-19T00:46:02.948Z,12.05
2023-01-19T00:48:32.281Z,12.65
2023-01-19T00:51:01.022Z,12.40
2023-01-19T00:53:32.375Z,12.70
2023-01-19T00:56:00.267Z,12.43
2023-01-19T00:58:28.187Z,12.00
2023-01-19T01:01:03.371Z,12.07
2023-01-19T01:03:33.566Z,12.13
2023-01-19T01:06:01.582Z,11.98
2023-01-19T01:08:29.710Z,11.30
2023-01-19T01:10:58.034Z,11.77
2023-01-19T01:13:27.910Z,12.05
2023-01-19T01:15:57.966Z,11.45
2023-01-19T01:18:26.101Z,11.85
2023-01-19T01:21:02.589Z,11.90
2023-01-19T01:23:30.599Z,12.70
2023-01-19T01:25:58.528Z,12.70
2023-01-19T01:28:26.660Z,11.80
2023-01-19T01:30:55.520Z,11.95
2023-01-19T01:33:40.496Z,12.15
2023-01-19T01:36:11.320Z,11.82
2023-01-19T01:38:39.268Z,11.20
2023-01-19T01:41:08.056Z,11.50
2023-01-19T01:43:48.228Z,11.82
2023-01-19T01:46:17.786Z,10.60
2023-01-19T01:48:50.756Z,11.55
2023-01-19T01:51:27.165Z,11.60
2023-01-19T01:54:20.015Z,10.57
2023-01-19T01:56:49.444Z,11.00
2023-01-19T01:59:26.613Z,11.95
2023-01-19T02:02:15.693Z,11.13
2023-01-19T02:04:47.965Z,11.00
2023-01-19T02:07:41.661Z,11.57
2023-01-19T02:10:28.246Z,12.00
2023-01-19T02:13:15.499Z,11.90
2023-01-19T02:15:45.270Z,13.02
2023-01-19T02:18:14.007Z,11.95
2023-01-19T02:20:46.005Z,11.52
2023-01-19T02:23:23.345Z,11.93
2023-01-19T02:25:54.070Z,11.15
2023-01-19T02:28:22.341Z,10.20
2023-01-19T02:30:50.342Z,10.50
2023-01-19T02:33:18.379Z,9.40
2023-01-19T02:35:47.350Z,9.75
2023-01-19T02:38:18.256Z,9.13
2023-01-19T02:40:46.804Z,9.95
2023-01-19T02:43:18.834Z,7.93
2023-01-19T02:45:48.217Z,8.20
2023-01-19T02:48:18.002Z,8.10
2023-01-19T02:50:49.853Z,8.40
2023-01-19T02:53:50.950Z,7.45
2023-01-19T02:56:45.589Z,7.45
2023-01-19T02:59:26.755Z,6.70
2023-01-19T03:02:08.887Z,6.93
2023-01-19T03:04:50.088Z,6.45
2023-01-19T03:07:24.651Z,6.78
2023-01-19T03:10:00.195Z,6.68
2023-01-19T03:12:38.609Z,6.68
2023-01-19T03:15:15.984Z,6.93
2023-01-19T03:17:46.393Z,7.20
2023-01-19T03:20:18.787Z,6.60
2023-01-19T03:22:47.884Z,6.63
2023-01-19T03:25:16.355Z,6.95
2023-01-19T03:27:46.582Z,6.63
2023-01-19T03:30:21.364Z,7.18
2023-01-19T03:32:53.180Z,6.75
2023-01-19T03:35:25.709Z,7.00
2023-01-19T03:37:58.149Z,6.88
2023-01-19T03:40:28.825Z,5.60
2023-01-19T03:42:58.202Z,7.28
2023-01-19T03:45:28.806Z,7.28
2023-01-19T03:47:57.099Z,7.72
2023-01-19T03:50:28.131Z,8.68
2023-01-19T03:53:06.219Z,7.93
2023-01-19T03:55:34.588Z,8.15
2023-01-19T03:58:02.710Z,8.27
2023-01-19T04:00:32.466Z,7.95
2023-01-19T04:03:00.859Z,8.73
2023-01-19T04:05:29.374Z,14.38
2023-01-19T04:07:57.362Z,11.55
2023-01-19T04:10:25.568Z,10.15
2023-01-19T04:12:59.417Z,9.35
2023-01-19T04:15:28.683Z,10.02
2023-01-19T04:18:00.051Z,9.38
2023-01-19T04:20:28.930Z,9.40
2023-01-19T04:23:00.681Z,10.10
2023-01-19T04:25:29.419Z,10.70
2023-01-19T04:27:58.888Z,10.27
2023-01-19T04:30:28.018Z,10.40
2023-01-19T04:32:56.335Z,9.60
2023-01-19T04:35:25.635Z,10.10
2023-01-19T04:37:53.813Z,10.63
2023-01-19T04:40:21.987Z,10.88
2023-01-19T04:42:50.190Z,10.10
2023-01-19T04:45:18.543Z,10.63
2023-01-19T04:47:46.469Z,10.00
2023-01-19T04:50:15.191Z,9.70
2023-01-19T04:52:44.566Z,9.82
2023-01-19T04:55:12.637Z,10.30
2023-01-19T04:57:40.562Z,10.52
2023-01-19T05:00:09.975Z,10.40
2023-01-19T05:02:37.916Z,11.23
2023-01-19T05:05:06.623Z,11.13
2023-01-19T05:07:35.275Z,10.65
2023-01-19T05:10:05.290Z,10.63
2023-01-19T05:12:33.331Z,10.63
2023-01-19T05:15:01.552Z,10.00
2023-01-19T05:17:29.580Z,9.77
2023-01-19T05:19:57.485Z,9.50
2023-01-19T05:22:25.352Z,10.45
2023-01-19T05:24:53.314Z,10.10
2023-01-19T05:27:22.611Z,10.95
2023-01-19T05:29:50.513Z,10.82
2023-01-19T05:32:18.409Z,10.95
2023-01-19T05:34:46.315Z,10.90
2023-01-19T05:37:14.257Z,11.38
2023-01-19T05:39:42.201Z,10.70
2023-01-19T05:42:10.090Z,11.43
2023-01-19T05:44:39.371Z,10.90
2023-01-19T05:47:07.245Z,11.73
2023-01-19T05:49:35.917Z,11.68
2023-01-19T05:52:06.064Z,10.95
2023-01-19T05:54:34.063Z,11.07
2023-01-19T05:57:03.036Z,10.98
2023-01-19T05:59:31.009Z,11.93
2023-01-19T06:02:01.085Z,11.13
2023-01-19T06:04:29.056Z,11.93
2023-01-19T06:06:56.968Z,12.43
2023-01-19T06:09:25.001Z,12.63
2023-01-19T06:11:54.162Z,11.88
2023-01-19T06:14:22.058Z,12.52
2023-01-19T06:16:49.959Z,12.48
2023-01-19T06:19:19.327Z,12.48
2023-01-19T06:21:52.196Z,12.55
2023-01-19T06:26:48.161Z,11.15
2023-01-19T06:29:16.227Z,12.10
2023-01-19T06:31:44.248Z,12.77
2023-01-19T06:34:12.403Z,12.45
2023-01-19T06:37:00.111Z,12.07
2023-01-19T06:39:28.649Z,13.27
2023-01-19T06:41:56.546Z,14.63
2023-01-19T06:44:25.913Z,12.85
2023-01-19T06:47:15.219Z,13.82
2023-01-19T06:49:42.092Z,13.25
2023-01-19T06:52:14.040Z,13.38
2023-01-19T06:54:43.367Z,14.20
2023-01-19T06:57:13.939Z,14.32
2023-01-19T06:59:42.042Z,13.02
2023-01-19T07:02:27.245Z,13.18
2023-01-19T07:04:56.175Z,13.20
2023-01-19T07:07:25.853Z,13.57
2023-01-19T07:09:54.332Z,13.10
2023-01-19T07:12:22.462Z,13.60
2023-01-19T07:14:50.493Z,13.45
2023-01-19T07:17:18.423Z,12.63
2023-01-19T07:19:46.930Z,13.50
2023-01-19T07:22:15.046Z,13.07
2023-01-19T07:24:44.441Z,12.55
2023-01-19T07:27:12.530Z,12.18
2023-01-19T07:29:40.596Z,12.68
2023-01-19T07:32:08.548Z,13.02
2023-01-19T07:34:37.000Z,11.63
2023-01-19T07:37:05.288Z,11.90
2023-01-19T07:39:33.244Z,12.13
2023-01-19T07:42:02.433Z,11.52
2023-01-19T07:44:33.173Z,11.32
2023-01-19T07:47:01.088Z,12.05
2023-01-19T07:49:28.985Z,11.30
2023-01-19T07:51:56.959Z,11.02
2023-01-19T07:54:25.017Z,11.18
2023-01-19T07:56:55.016Z,10.65
2023-01-19T07:59:24.295Z,11.30
2023-01-19T08:01:54.089Z,10.02
2023-01-19T08:04:22.235Z,10.50
2023-01-19T08:06:50.343Z,10.73
2023-01-19T08:09:19.009Z,10.65
2023-01-19T08:11:46.883Z,10.43
2023-01-19T08:14:14.817Z,10.32
2023-01-19T08:16:44.073Z,10.75
2023-01-19T08:19:12.194Z,10.52
2023-01-19T08:21:40.168Z,10.25
2023-01-19T08:24:08.704Z,9.98
2023-01-19T08:26:37.040Z,10.93
2023-01-19T08:29:07.089Z,9.93
2023-01-19T08:31:35.015Z,10.85
2023-01-19T08:34:04.330Z,9.70
2023-01-19T08:36:32.376Z,10.57
2023-01-19T08:39:00.331Z,9.43
2023-01-19T08:41:28.253Z,10.30
2023-01-19T08:43:56.301Z,8.60
2023-01-19T08:46:24.237Z,8.73
2023-01-19T08:48:52.261Z,8.60
2023-01-19T08:51:21.560Z,8.43
2023-01-19T08:53:49.770Z,8.73
2023-01-19T08:56:20.410Z,8.05
2023-01-19T08:58:59.477Z,8.32
2023-01-19T09:01:37.444Z,7.97
2023-01-19T09:04:06.154Z,9.38
2023-01-19T09:06:35.639Z,8.35
2023-01-19T09:09:03.946Z,8.40
2023-01-19T09:11:31.902Z,9.05
2023-01-19T09:13:59.902Z,7.70
2023-01-19T09:16:29.225Z,9.07
2023-01-19T09:18:57.295Z,8.07
2023-01-19T09:21:26.235Z,8.05
2023-01-19T09:23:55.679Z,7.78
2023-01-19T09:26:23.755Z,7.97
2023-01-19T09:28:51.735Z,8.20
2023-01-19T09:31:19.774Z,8.35
2023-01-19T09:33:47.728Z,7.65
2023-01-19T09:36:15.730Z,8.32
2023-01-19T09:38:43.960Z,8.18
2023-01-19T09:41:20.135Z,7.90
2023-01-19T09:43:53.188Z,7.72
2023-01-19T09:46:24.436Z,7.50
2023-01-19T09:48:56.456Z,7.80
2023-01-19T09:51:26.465Z,7.40
2023-01-19T09:54:01.199Z,6.97
2023-01-19T09:56:32.296Z,7.43
2023-01-19T09:59:01.259Z,7.38
2023-01-19T10:01:46.980Z,6.40
2023-01-19T10:04:34.834Z,6.57
2023-01-19T10:07:17.145Z,7.35
2023-01-19T10:10:02.345Z,7.38
2023-01-19T10:12:45.732Z,6.97
2023-01-19T10:15:22.566Z,6.93
2023-01-19T10:18:03.538Z,7.60
2023-01-19T10:20:39.877Z,7.68
2023-01-19T10:23:22.909Z,6.55
2023-01-19T10:25:51.481Z,6.22
2023-01-19T10:28:24.927Z,5.72
2023-01-19T10:30:55.307Z,5.90
2023-01-19T10:33:23.634Z,5.82
2023-01-19T10:35:51.635Z,5.15
2023-01-19T10:38:22.389Z,5.03
2023-01-19T10:40:56.368Z,5.20
2023-01-19T10:43:40.003Z,5.38
2023-01-19T10:46:15.915Z,5.15
2023-01-19T10:48:44.913Z,4.93
2023-01-19T10:51:13.560Z,4.95
2023-01-19T10:53:43.632Z,4.90
2023-01-19T10:56:15.543Z,5.22
2023-01-19T10:58:44.899Z,4.55
2023-01-19T11:01:18.868Z,4.60
2023-01-19T11:03:47.191Z,4.30
2023-01-19T11:06:24.275Z,4.40
2023-01-19T11:08:54.229Z,4.78
2023-01-19T11:11:24.530Z,4.50
2023-01-19T11:14:11.660Z,3.75
2023-01-19T11:16:40.499Z,3.90
2023-01-19T11:19:25.008Z,4.18
2023-01-19T11:21:53.987Z,3.80
2023-01-19T11:24:24.115Z,3.67
2023-01-19T11:27:02.893Z,3.53
2023-01-19T11:29:32.558Z,3.40
2023-01-19T11:32:12.404Z,3.70
2023-01-19T11:34:40.383Z,3.13
2023-01-19T11:37:28.486Z,2.95
2023-01-19T11:39:58.537Z,3.55
2023-01-19T11:42:27.293Z,3.38
2023-01-19T11:45:02.836Z,3.80
2023-01-19T11:47:36.382Z,3.50
2023-01-19T11:50:13.123Z,2.58
2023-01-19T11:52:44.775Z,2.60
2023-01-19T11:55:19.474Z,2.47
2023-01-19T11:57:50.917Z,2.60
2023-01-19T12:00:26.302Z,2.55
2023-01-19T12:02:59.629Z,2.85
2023-01-19T12:08:04.129Z,2.53
2023-01-19T12:10:37.806Z,2.30
2023-01-19T12:13:05.839Z,2.22
2023-01-19T12:15:39.730Z,2.03
2023-01-19T12:18:17.122Z,1.95
2023-01-19T12:20:50.458Z,2.58
2023-01-19T12:23:31.311Z,1.95
2023-01-19T12:26:09.451Z,2.30
2023-01-19T12:28:42.482Z,2.55
2023-01-19T12:31:16.531Z,2.22
2023-01-19T12:33:44.572Z,2.45
2023-01-19T12:36:39.619Z,2.25
2023-01-19T12:39:17.997Z,2.00
2023-01-19T12:41:47.020Z,2.47
2023-01-19T12:44:24.688Z,2.35
2023-01-19T12:47:03.327Z,2.10
2023-01-19T12:49:35.410Z,2.38
2023-01-19T12:52:19.372Z,2.20
2023-01-19T12:54:56.419Z,2.55
2023-01-19T12:57:28.038Z,2.05
2023-01-19T13:00:01.078Z,2.40
2023-01-19T13:02:49.212Z,2.65
2023-01-19T13:05:20.665Z,2.60
2023-01-19T13:08:17.100Z,2.33
2023-01-19T13:10:57.262Z,4.07
2023-01-19T13:13:27.032Z,3.13
2023-01-19T13:15:56.203Z,2.50
2023-01-19T13:18:28.611Z,3.58
2023-01-19T13:21:00.974Z,2.60
2023-01-19T13:23:42.773Z,2.87
2023-01-19T13:26:15.780Z,2.42
2023-01-19T13:28:46.259Z,3.13
2023-01-19T13:31:15.089Z,3.17
2023-01-19T13:33:50.802Z,3.55
2023-01-19T13:36:26.780Z,3.10
2023-01-19T13:38:56.470Z,2.97
2023-01-19T13:41:26.115Z,3.10
2023-01-19T13:44:00.874Z,2.60
2023-01-19T13:46:29.972Z,2.97
2023-01-19T13:49:03.819Z,2.95
2023-01-19T13:51:31.743Z,2.65
2023-01-19T13:54:01.821Z,3.28
2023-01-19T13:56:30.799Z,2.78
2023-01-19T13:59:00.726Z,2.83
2023-01-19T14:01:30.410Z,3.08
2023-01-19T14:04:00.090Z,3.22
2023-01-19T14:06:38.745Z,3.45
2023-01-19T14:09:16.907Z,3.30
2023-01-19T14:11:46.889Z,3.00
2023-01-19T14:14:25.877Z,2.88
2023-01-19T14:16:54.376Z,3.47
2023-01-19T14:19:24.098Z,6.60
2023-01-19T14:22:00.963Z,5.07
2023-01-19T14:24:31.979Z,5.93
2023-01-19T14:27:18.278Z,4.53
2023-01-19T14:29:50.361Z,3.70
2023-01-19T14:32:20.545Z,3.78
2023-01-19T14:34:52.001Z,3.80
2023-01-19T14:37:23.853Z,4.00
2023-01-19T14:39:54.399Z,4.18
2023-01-19T14:42:27.000Z,4.00
2023-01-19T14:44:57.401Z,4.07
2023-01-19T14:47:33.256Z,4.65
2023-01-19T14:50:10.818Z,4.68
2023-01-19T14:52:41.107Z,4.28
2023-01-19T14:55:20.411Z,3.95
2023-01-19T14:57:49.104Z,3.90
2023-01-19T15:00:19.033Z,4.05
2023-01-19T15:02:47.521Z,2.90
2023-01-19T15:05:17.416Z,3.70
2023-01-19T15:07:47.370Z,3.45
2023-01-19T15:10:20.550Z,3.42
2023-01-19T15:15:19.463Z,2.58
2023-01-19T15:17:47.833Z,3.05
2023-01-19T15:20:20.518Z,2.78
2023-01-19T15:22:49.126Z,3.50
2023-01-19T15:25:18.384Z,3.50
2023-01-19T15:27:47.075Z,3.35
2023-01-19T15:30:17.439Z,3.85
2023-01-19T15:32:45.931Z,3.92
2023-01-19T15:35:19.831Z,4.32
2023-01-19T15:37:48.767Z,4.20
2023-01-19T15:40:17.917Z,3.75
2023-01-19T15:42:46.615Z,3.80
2023-01-19T15:45:37.682Z,4.03
2023-01-19T15:48:07.162Z,4.15
2023-01-19T15:50:37.604Z,4.88
2023-01-19T15:53:07.796Z,4.97
2023-01-19T15:55:35.781Z,4.03
2023-01-19T15:58:03.740Z,4.53
2023-01-19T16:00:33.442Z,5.18
2023-01-19T16:03:03.427Z,4.50
2023-01-19T16:05:42.507Z,4.63
2023-01-19T16:08:13.164Z,4.40
2023-01-19T16:10:41.309Z,4.25
2023-01-19T16:13:09.652Z,4.10
2023-01-19T16:15:38.758Z,3.80
2023-01-19T16:18:07.140Z,3.85
2023-01-19T16:20:35.514Z,3.72
2023-01-19T16:23:14.478Z,3.83
2023-01-19T16:25:44.829Z,3.80
2023-01-19T16:28:12.960Z,3.72
2023-01-19T16:30:41.040Z,4.47
2023-01-19T16:33:13.194Z,4.88
2023-01-19T16:35:41.166Z,5.22
2023-01-19T16:38:10.178Z,4.93
2023-01-19T16:40:38.636Z,5.53
2023-01-19T16:43:07.934Z,5.35
2023-01-19T16:45:35.916Z,5.50
2023-01-19T16:48:03.868Z,4.47
2023-01-19T16:50:31.808Z,5.22
2023-01-19T16:53:00.128Z,5.28
2023-01-19T16:55:28.068Z,5.30
2023-01-19T16:57:56.701Z,4.72
2023-01-19T17:00:26.161Z,5.20
2023-01-19T17:02:54.192Z,4.05
2023-01-19T17:05:22.332Z,4.15
2023-01-19T17:07:50.369Z,4.45
2023-01-19T17:10:18.348Z,4.72
2023-01-19T17:12:46.377Z,4.50
2023-01-19T17:15:14.420Z,3.90
2023-01-19T17:17:43.734Z,4.45
2023-01-19T17:20:12.781Z,4.20
2023-01-19T17:22:40.826Z,4.28
2023-01-19T17:25:09.527Z,3.85
2023-01-19T17:27:37.429Z,4.13
2023-01-19T17:30:05.848Z,4.30
2023-01-19T17:32:33.714Z,4.55
2023-01-19T17:35:03.061Z,4.32
2023-01-19T17:37:30.926Z,4.78
2023-01-19T17:39:58.931Z,4.32
2023-01-19T17:42:26.849Z,4.55
2023-01-19T17:44:54.726Z,4.63
2023-01-19T17:47:25.849Z,4.72
2023-01-19T17:49:53.944Z,4.70
2023-01-19T17:52:23.245Z,4.30
2023-01-19T17:54:51.196Z,4.60
2023-01-19T17:57:19.128Z,3.92
2023-01-19T17:59:48.139Z,5.10
2023-01-19T18:02:16.250Z,4.70
2023-01-19T18:04:44.341Z,4.43
2023-01-19T18:07:12.263Z,3.92
2023-01-19T18:09:41.542Z,4.63
2023-01-19T18:12:09.610Z,4.38
2023-01-19T18:14:37.544Z,4.53
2023-01-19T18:17:05.508Z,4.95
2023-01-19T18:19:33.514Z,5.43
2023-01-19T18:22:01.401Z,4.53
2023-01-19T18:24:29.340Z,4.72
2023-01-19T18:26:58.661Z,4.57
2023-01-19T18:29:26.722Z,4.38
2023-01-19T18:31:54.670Z,3.78
2023-01-19T18:34:22.564Z,4.55
2023-01-19T18:36:50.509Z,4.13
2023-01-19T18:39:18.382Z,4.30
2023-01-19T18:41:46.305Z,4.10
2023-01-19T18:44:15.546Z,5.15
2023-01-19T18:46:43.462Z,5.13
2023-01-19T18:49:11.380Z,8.38
2023-01-19T18:51:41.449Z,7.13
2023-01-19T18:54:10.214Z,6.63
2023-01-19T18:56:38.185Z,6.82
2023-01-19T18:59:06.088Z,7.30
2023-01-19T19:01:36.364Z,7.90
2023-01-19T19:04:04.468Z,6.68
2023-01-19T19:06:32.387Z,6.72
2023-01-19T19:09:00.342Z,7.03
2023-01-19T19:11:28.963Z,6.85
2023-01-19T19:13:59.242Z,6.38
2023-01-19T19:16:27.760Z,6.55
2023-01-19T19:18:59.320Z,6.93
2023-01-19T19:21:27.584Z,6.22
2023-01-19T19:23:57.570Z,6.80
2023-01-19T19:26:27.968Z,7.80
2023-01-19T19:28:56.185Z,8.38
2023-01-19T19:31:28.464Z,8.52
2023-01-19T19:33:59.039Z,7.17
2023-01-19T19:36:28.640Z,8.90
2023-01-19T19:38:56.603Z,7.10
2023-01-19T19:41:26.922Z,8.18
2023-01-19T19:43:55.860Z,6.95
2023-01-19T19:46:25.097Z,6.05
2023-01-19T19:48:54.159Z,5.88
2023-01-19T19:51:25.428Z,6.32
2023-01-19T19:53:54.208Z,6.85
2023-01-19T19:56:24.559Z,6.43
2023-01-19T19:58:54.955Z,6.85
2023-01-19T20:01:27.080Z,6.53
2023-01-19T20:06:26.519Z,7.07
2023-01-19T20:08:56.733Z,7.13
2023-01-19T20:11:28.385Z,6.30
2023-01-19T20:13:57.142Z,6.43
2023-01-19T20:16:26.114Z,6.35
2023-01-19T20:18:55.106Z,6.13
2023-01-19T20:21:26.136Z,6.40
2023-01-19T20:23:55.842Z,7.00
2023-01-19T20:26:26.842Z,6.43
2023-01-19T20:28:58.103Z,6.43
2023-01-19T20:31:28.557Z,7.22
2023-01-19T20:33:59.493Z,6.50
2023-01-19T20:36:29.092Z,5.35
2023-01-19T20:38:58.070Z,6.07
2023-01-19T20:41:27.578Z,6.95
2023-01-19T20:43:55.856Z,6.40
2023-01-19T20:46:24.129Z,5.97
2023-01-19T20:48:54.647Z,5.80
2023-01-19T20:51:23.022Z,5.97
2023-01-19T20:53:52.280Z,6.25
2023-01-19T20:56:20.154Z,5.80
2023-01-19T20:58:50.192Z,5.45
2023-01-19T21:01:20.457Z,4.82
2023-01-19T21:03:48.759Z,4.55
2023-01-19T21:06:17.630Z,4.25
2023-01-19T21:08:45.949Z,5.22
2023-01-19T21:11:16.244Z,5.20
2023-01-19T21:13:44.156Z,4.57
2023-01-19T21:16:12.402Z,4.70
2023-01-19T21:18:40.400Z,4.50
2023-01-19T21:21:14.907Z,4.50
2023-01-19T21:23:50.265Z,4.55
2023-01-19T21:26:19.470Z,5.35
2023-01-19T21:28:47.395Z,4.65
2023-01-19T21:31:15.484Z,4.40
2023-01-19T21:33:44.213Z,4.25
2023-01-19T21:36:12.526Z,4.55
2023-01-19T21:38:40.791Z,4.55
2023-01-19T21:41:12.467Z,5.30
2023-01-19T21:43:43.083Z,4.65
2023-01-19T21:46:12.306Z,4.85
2023-01-19T21:48:40.256Z,4.88
2023-01-19T21:51:08.522Z,5.35
2023-01-19T21:53:36.562Z,5.28
2023-01-19T21:56:07.715Z,5.90
2023-01-19T21:58:35.670Z,5.80
2023-01-19T22:01:07.218Z,6.30
2023-01-19T22:03:35.265Z,6.18
2023-01-19T22:06:05.760Z,6.72
2023-01-19T22:08:33.889Z,5.93
2023-01-19T22:11:05.276Z,6.40
2023-01-19T22:13:34.788Z,6.00
2023-01-19T22:16:05.295Z,6.68
2023-01-19T22:18:35.845Z,6.60
2023-01-19T22:21:11.334Z,6.05
2023-01-19T22:23:39.725Z,6.07
2023-01-19T22:26:08.363Z,6.40
2023-01-19T22:28:37.130Z,6.70
2023-01-19T22:31:08.704Z,7.43
2023-01-19T22:33:36.991Z,7.53
2023-01-19T22:36:11.307Z,6.70
2023-01-19T22:38:40.183Z,6.68
2023-01-19T22:41:15.859Z,7.40
2023-01-19T22:43:44.628Z,6.70
2023-01-19T22:46:14.155Z,6.63
2023-01-19T22:48:42.306Z,6.63
2023-01-19T22:51:10.396Z,7.20
2023-01-19T22:53:39.286Z,7.50
2023-01-19T22:56:12.667Z,7.68
2023-01-19T22:58:41.321Z,7.05
2023-01-19T23:01:10.162Z,7.25
2023-01-19T23:03:39.679Z,7.03
2023-01-19T23:06:09.217Z,7.20
2023-01-19T23:08:37.484Z,7.00
2023-01-19T23:11:07.095Z,6.78
2023-01-19T23:13:35.534Z,6.40
2023-01-19T23:16:04.365Z,6.70
2023-01-19T23:18:32.655Z,6.18
2023-01-19T23:21:05.251Z,6.68
2023-01-19T23:23:35.336Z,6.78
2023-01-19T23:26:04.221Z,6.68
2023-01-19T23:28:34.099Z,6.70
2023-01-19T23:31:02.467Z,6.68
2023-01-19T23:33:30.544Z,6.53
2023-01-19T23:35:58.448Z,6.30
2023-01-19T23:38:27.687Z,5.93
2023-01-19T23:40:58.324Z,6.18
2023-01-19T23:43:26.285Z,6.43
2023-01-19T23:45:54.191Z,6.05
2023-01-19T23:48:22.374Z,5.90
2023-01-19T23:50:50.280Z,5.80
2023-01-19T23:53:18.300Z,6.60
2023-01-19T23:55:47.553Z,6.38
2023-01-19T23:58:16.287Z,6.75
